Time;durP1;ratioP1;P1;durP2;ratioP2;P2;SDS_P1;SDS_P2;PMS_P1;PMS_P2;Temp;Humidity;BMP_temperature;BMP_pressure;BME280_temperature;BME280_humidity;BME280_pressure;Samples;Min_cycle;Max_cycle;Signal;HPM_P1;HPM_P2
2021/10/10 00:01:20;;;;;;;3.17;2.53;;;;;;;8.46;81.50;97320.03;5113372;28;20027;-61
2021/10/10 00:03:45;;;;;;;3.45;2.90;;;;;;;8.42;81.65;97318.34;5113296;28;20051;-62
2021/10/10 00:06:11;;;;;;;4.50;2.95;;;;;;;8.34;82.15;97316.72;5113388;28;20479;-61
2021/10/10 00:08:37;;;;;;;4.03;3.22;;;;;;;8.34;82.31;97316.72;5113390;28;20024;-62
2021/10/10 00:11:02;;;;;;;3.97;3.08;;;;;;;8.20;82.13;97313.50;5113428;28;20107;-61
2021/10/10 00:13:28;;;;;;;7.50;3.47;;;;;;;8.14;82.47;97317.06;5113303;28;20027;-61
2021/10/10 00:15:53;;;;;;;4.03;3.38;;;;;;;8.05;82.82;97309.38;5113240;28;20028;-61
2021/10/10 00:18:19;;;;;;;5.43;3.35;;;;;;;8.08;82.95;97312.81;5113484;28;20028;-61
2021/10/10 00:20:45;;;;;;;6.97;3.58;;;;;;;8.09;82.80;97313.66;5113436;28;20016;-62
2021/10/10 00:23:11;;;;;;;4.38;3.15;;;;;;;8.12;82.82;97304.94;5113173;28;20098;-61
2021/10/10 00:25:36;;;;;;;7.05;3.58;;;;;;;8.14;82.84;97292.72;5113187;28;20073;-61
2021/10/10 00:28:02;;;;;;;15.88;3.97;;;;;;;8.21;82.71;97302.16;5113290;28;20102;-61
2021/10/10 00:30:27;;;;;;;5.25;3.53;;;;;;;8.14;82.56;97308.38;5113189;28;20434;-62
2021/10/10 00:32:53;;;;;;;3.78;3.25;;;;;;;8.18;82.78;97305.69;5113161;28;20028;-62
2021/10/10 00:35:19;;;;;;;5.53;3.15;;;;;;;8.12;82.14;97300.56;5115239;28;20029;-61
2021/10/10 00:37:45;;;;;;;4.30;3.08;;;;;;;8.13;82.39;97301.44;5117053;28;20020;-61
2021/10/10 00:40:12;;;;;;;5.63;3.35;;;;;;;8.11;82.45;97303.19;5117180;28;20042;-61
2021/10/10 00:42:38;;;;;;;4.15;3.28;;;;;;;8.17;82.60;97298.78;5117048;28;20020;-61
2021/10/10 00:45:04;;;;;;;4.13;3.20;;;;;;;8.22;82.76;97299.53;5117177;28;20019;-62
2021/10/10 00:47:30;;;;;;;3.60;2.83;;;;;;;8.26;82.36;97292.53;5117033;28;20037;-61
2021/10/10 00:49:55;;;;;;;4.10;2.75;;;;;;;8.30;81.73;97293.34;5116849;28;20030;-62
2021/10/10 00:52:22;;;;;;;7.18;2.90;;;;;;;8.29;82.08;97300.31;5116759;28;20361;-61
2021/10/10 00:54:49;;;;;;;3.30;3.00;;;;;;;8.31;81.79;97292.47;5098626;28;20349;-61
2021/10/10 00:57:15;;;;;;;8.73;3.47;;;;;;;8.37;82.03;97296.72;5116870;28;20475;-61
2021/10/10 00:59:46;;;;;;;6.40;2.97;;;;;;;8.37;81.96;97284.53;5116777;28;20015;-62
2021/10/10 01:02:13;;;;;;;4.78;3.17;;;;;;;8.39;81.71;97281.88;5116358;28;20036;-61
2021/10/10 01:04:40;;;;;;;3.42;2.80;;;;;;;8.33;81.61;97282.84;5116698;28;20035;-61
2021/10/10 01:07:06;;;;;;;3.40;2.58;;;;;;;8.33;81.64;97280.25;5116745;28;20039;-61
2021/10/10 01:09:35;;;;;;;3.80;3.00;;;;;;;8.35;81.57;97283.69;5116659;28;20377;-61
2021/10/10 01:12:01;;;;;;;3.85;2.63;;;;;;;8.30;81.62;97277.69;5116383;28;20433;-62
2021/10/10 01:14:27;;;;;;;3.42;2.53;;;;;;;8.21;81.94;97276.97;5116445;28;20027;-61
2021/10/10 01:16:53;;;;;;;4.53;3.47;;;;;;;8.21;82.30;97276.09;5116409;28;20515;-61
2021/10/10 01:19:18;;;;;;;5.88;2.97;;;;;;;8.25;82.48;97269.09;5116278;28;20024;-62
2021/10/10 01:21:44;;;;;;;2.83;2.45;;;;;;;8.26;82.21;97276.03;5116316;28;20026;-62
2021/10/10 01:24:09;;;;;;;3.53;2.88;;;;;;;8.24;82.17;97272.59;5116472;28;20035;-61
2021/10/10 01:26:35;;;;;;;4.53;2.63;;;;;;;8.22;82.48;97267.41;5116323;28;20376;-62
2021/10/10 01:29:01;;;;;;;3.85;3.20;;;;;;;8.28;82.53;97264.69;5116169;28;20038;-61
2021/10/10 01:31:26;;;;;;;4.70;3.00;;;;;;;8.32;82.46;97270.72;5116378;28;20032;-61
2021/10/10 01:33:53;;;;;;;3.45;2.55;;;;;;;8.32;82.04;97263.78;5116027;28;20039;-62
2021/10/10 01:36:19;;;;;;;7.40;2.50;;;;;;;8.34;82.15;97264.59;5115979;28;20522;-62
2021/10/10 01:38:45;;;;;;;3.10;2.35;;;;;;;8.41;82.18;97265.34;5115897;28;20055;-61
2021/10/10 01:41:11;;;;;;;3.17;2.17;;;;;;;8.45;82.20;97264.41;5115979;28;20051;-61
2021/10/10 01:43:37;;;;;;;2.95;2.30;;;;;;;8.48;81.64;97263.47;5115997;28;20028;-62
2021/10/10 01:46:03;;;;;;;3.75;2.65;;;;;;;8.54;81.67;97259.94;5115620;28;20381;-62
2021/10/10 01:48:29;;;;;;;4.28;2.75;;;;;;;8.63;81.71;97269.31;5115745;28;20019;-62
2021/10/10 01:50:55;;;;;;;5.57;3.05;;;;;;;8.61;81.70;97271.97;5115654;28;20031;-61
2021/10/10 01:53:21;;;;;;;6.65;3.15;;;;;;;8.62;81.47;97262.41;5115640;28;20036;-62
2021/10/10 01:55:46;;;;;;;4.05;3.63;;;;;;;8.66;81.30;97264.06;5115786;28;20042;-62
2021/10/10 01:58:12;;;;;;;8.95;3.30;;;;;;;8.72;81.57;97264.81;5115783;28;20077;-61
2021/10/10 02:00:38;;;;;;;10.07;3.38;;;;;;;8.73;81.80;97273.47;5115809;28;20055;-61
2021/10/10 02:03:04;;;;;;;4.82;2.72;;;;;;;8.76;81.59;97262.16;5115233;28;20069;-62
2021/10/10 02:05:30;;;;;;;4.60;3.05;;;;;;;8.77;81.44;97264.72;5115426;28;20119;-61
2021/10/10 02:07:56;;;;;;;3.55;2.70;;;;;;;8.77;81.41;97277.78;5115400;28;20528;-61
2021/10/10 02:10:21;;;;;;;3.42;2.72;;;;;;;8.79;81.48;97272.53;5115438;28;20046;-61
2021/10/10 02:12:47;;;;;;;3.92;2.63;;;;;;;8.83;81.51;97274.19;5115295;28;20373;-62
2021/10/10 02:15:13;;;;;;;2.58;2.38;;;;;;;8.82;81.68;97270.72;5115458;28;20028;-61
2021/10/10 02:17:39;;;;;;;5.47;2.55;;;;;;;8.85;81.67;97275.88;5097015;28;20034;-61
2021/10/10 02:20:06;;;;;;;3.50;2.70;;;;;;;8.89;81.62;97270.59;5115222;28;20137;-61
2021/10/10 02:22:31;;;;;;;3.15;2.85;;;;;;;8.91;81.56;97279.25;5115247;28;20070;-61
2021/10/10 02:24:57;;;;;;;5.63;2.60;;;;;;;8.96;81.35;97275.66;5115136;28;20046;-62
2021/10/10 02:27:23;;;;;;;3.15;2.85;;;;;;;8.97;81.13;97279.13;5114980;28;20073;-61
2021/10/10 02:29:48;;;;;;;4.65;2.47;;;;;;;8.98;80.88;97273.03;5114943;28;20024;-62
2021/10/10 02:32:14;;;;;;;6.80;2.63;;;;;;;9.00;80.79;97271.22;5114921;28;20031;-61
2021/10/10 02:34:39;;;;;;;3.05;2.58;;;;;;;9.00;80.81;97270.38;5115191;28;20043;-62
2021/10/10 02:37:05;;;;;;;2.75;2.40;;;;;;;9.04;80.75;97275.53;5114730;28;20011;-62
2021/10/10 02:39:31;;;;;;;7.20;2.85;;;;;;;9.03;81.15;97279.00;5114758;28;20101;-62
2021/10/10 02:41:56;;;;;;;4.28;2.67;;;;;;;9.08;81.07;97286.75;5114846;28;20024;-62
2021/10/10 02:44:22;;;;;;;2.90;2.65;;;;;;;9.09;80.81;97285.84;5114697;28;20023;-61
2021/10/10 02:46:47;;;;;;;6.25;3.20;;;;;;;9.12;80.71;97284.94;5114839;28;20024;-62
2021/10/10 02:49:13;;;;;;;5.35;2.53;;;;;;;9.13;80.72;97279.69;5114575;28;20073;-61
2021/10/10 02:51:38;;;;;;;8.20;3.13;;;;;;;9.13;80.75;97279.69;5114466;28;20073;-62
2021/10/10 02:54:04;;;;;;;5.38;3.60;;;;;;;9.15;80.64;97280.50;5114433;28;20035;-62
2021/10/10 02:56:29;;;;;;;4.03;2.97;;;;;;;9.17;80.71;97280.47;5114386;28;20041;-61
2021/10/10 02:58:55;;;;;;;6.82;3.15;;;;;;;9.17;80.65;97280.47;5113875;28;20028;-62
2021/10/10 03:01:21;;;;;;;5.05;3.22;;;;;;;9.18;80.53;97277.84;5114540;28;20024;-62
2021/10/10 03:03:46;;;;;;;3.78;2.90;;;;;;;9.20;80.56;97272.56;5114207;28;20047;-62
2021/10/10 03:06:12;;;;;;;4.85;3.50;;;;;;;9.19;80.53;97268.25;5114186;28;20086;-62
2021/10/10 03:08:37;;;;;;;4.22;2.92;;;;;;;9.24;80.54;97266.41;5114123;28;20024;-62
2021/10/10 03:11:03;;;;;;;6.90;3.50;;;;;;;9.24;80.47;97266.41;5114279;28;20036;-62
2021/10/10 03:13:29;;;;;;;6.53;3.10;;;;;;;9.21;80.62;97269.06;5113914;28;20366;-60
2021/10/10 03:15:56;;;;;;;5.35;3.08;;;;;;;9.20;80.77;97262.13;5113983;28;20084;-61
2021/10/10 03:18:21;;;;;;;5.55;2.92;;;;;;;9.22;80.61;97261.19;5114010;28;20072;-61
2021/10/10 03:20:47;;;;;;;3.15;2.72;;;;;;;9.23;80.95;97255.13;5114025;28;20024;-62
2021/10/10 03:23:13;;;;;;;4.97;3.03;;;;;;;9.20;80.96;97264.75;5113940;28;20024;-62
2021/10/10 03:25:38;;;;;;;4.03;3.40;;;;;;;9.22;80.84;97255.97;5113889;28;20027;-62
2021/10/10 03:28:04;;;;;;;5.07;3.20;;;;;;;9.20;80.65;97260.41;5113843;28;20062;-61
2021/10/10 03:30:29;;;;;;;3.95;3.00;;;;;;;9.19;80.59;97257.81;5114100;28;20072;-60
2021/10/10 03:32:55;;;;;;;4.95;3.20;;;;;;;9.18;80.69;97254.34;5113788;28;20023;-61
2021/10/10 03:35:20;;;;;;;4.90;3.72;;;;;;;9.17;80.54;97251.75;5113944;28;20484;-61
2021/10/10 03:37:46;;;;;;;6.05;3.13;;;;;;;9.09;80.49;97249.28;5113803;28;20023;-61
2021/10/10 03:40:12;;;;;;;3.95;3.53;;;;;;;9.08;80.25;97255.41;5113643;28;20103;-62
2021/10/10 03:42:38;;;;;;;6.32;3.05;;;;;;;9.01;80.82;97249.47;5113775;28;20477;-61
2021/10/10 03:45:06;;;;;;;5.13;2.83;;;;;;;9.05;81.05;97251.13;5113864;28;20027;-62
2021/10/10 03:47:32;;;;;;;3.47;3.10;;;;;;;9.04;81.52;97252.03;5113743;28;20016;-62
2021/10/10 03:49:58;;;;;;;15.82;2.83;;;;;;;9.08;81.54;97252.81;5113550;28;20525;-62
2021/10/10 03:52:23;;;;;;;4.03;3.03;;;;;;;9.09;81.33;97252.78;5113571;28;20047;-62
2021/10/10 03:57:20;;;;;;;3.67;3.10;;;;;;;9.08;81.50;97247.59;5113644;28;20366;-61
2021/10/10 03:59:48;;;;;;;5.90;3.28;;;;;;;9.13;81.44;97248.38;5113570;28;20031;-62
2021/10/10 04:02:14;;;;;;;6.82;2.85;;;;;;;9.17;81.38;97251.75;5113252;28;20115;-62
2021/10/10 04:04:40;;;;;;;3.78;3.05;;;;;;;9.18;81.17;97248.28;5113446;28;20099;-62
2021/10/10 04:07:05;;;;;;;3.25;2.83;;;;;;;9.17;80.92;97246.53;5113493;28;20016;-61
2021/10/10 04:09:31;;;;;;;4.85;3.50;;;;;;;9.14;81.16;97238.75;5115993;28;20016;-61
2021/10/10 04:11:56;;;;;;;3.60;2.95;;;;;;;9.13;80.89;97243.16;5117695;28;20019;-62
2021/10/10 04:14:22;;;;;;;3.72;2.90;;;;;;;9.09;80.63;97239.72;5117654;28;20468;-61
2021/10/10 04:16:47;;;;;;;4.90;3.13;;;;;;;9.04;80.94;97243.34;5117635;28;20023;-61
2021/10/10 04:19:13;;;;;;;8.02;3.85;;;;;;;9.04;81.23;97241.59;5117354;28;20046;-62
2021/10/10 04:21:39;;;;;;;3.88;2.92;;;;;;;9.04;81.57;97240.72;5117594;28;20016;-62
2021/10/10 04:24:04;;;;;;;3.70;3.20;;;;;;;9.05;81.69;97248.53;5117427;28;20472;-63
2021/10/10 04:26:30;;;;;;;3.88;3.03;;;;;;;9.09;81.70;97251.91;5117391;28;20031;-62
2021/10/10 04:28:55;;;;;;;6.82;3.08;;;;;;;9.12;81.85;97257.06;5117328;28;20469;-61
2021/10/10 04:31:21;;;;;;;4.30;3.13;;;;;;;9.15;81.64;97258.78;5117273;28;20522;-62
2021/10/10 04:33:46;;;;;;;3.75;2.97;;;;;;;9.14;81.73;97255.28;5117210;28;20544;-62
2021/10/10 04:36:12;;;;;;;5.95;2.60;;;;;;;9.18;81.92;97256.09;5117244;28;20020;-62
2021/10/10 04:38:37;;;;;;;4.43;3.22;;;;;;;9.20;81.81;97263.00;5117126;28;20016;-61
2021/10/10 04:41:04;;;;;;;3.33;3.03;;;;;;;9.22;81.98;97253.38;5116966;28;20023;-61
2021/10/10 04:43:29;;;;;;;3.65;3.08;;;;;;;9.25;81.87;97259.44;5117144;28;20024;-62
2021/10/10 04:45:55;;;;;;;6.38;3.35;;;;;;;9.28;81.64;97260.25;5117028;28;20427;-62
2021/10/10 04:48:21;;;;;;;4.82;3.20;;;;;;;9.30;81.57;97261.03;5116950;28;20024;-62
2021/10/10 04:50:46;;;;;;;6.75;3.65;;;;;;;9.30;81.49;97262.81;5116800;28;20027;-61
2021/10/10 04:53:12;;;;;;;8.77;3.70;;;;;;;9.33;81.37;97260.16;5116843;28;20024;-62
2021/10/10 04:55:38;;;;;;;6.35;3.50;;;;;;;9.27;81.04;97258.50;5116817;28;20028;-62
2021/10/10 04:58:04;;;;;;;4.53;3.38;;;;;;;9.32;81.17;97261.88;5116927;28;20383;-61
2021/10/10 05:00:29;;;;;;;6.43;3.63;;;;;;;9.34;81.46;97261.84;5116930;28;20016;-63
2021/10/10 05:02:55;;;;;;;7.45;4.18;;;;;;;9.35;81.71;97264.44;5116390;28;20393;-62
2021/10/10 05:05:21;;;;;;;5.18;3.35;;;;;;;9.38;81.94;97257.41;5116625;28;20020;-62
2021/10/10 05:07:46;;;;;;;7.20;3.92;;;;;;;9.43;81.70;97260.78;5116453;28;20027;-62
2021/10/10 05:10:12;;;;;;;4.07;3.33;;;;;;;9.45;81.60;97257.25;5116577;28;20019;-61
2021/10/10 05:12:37;;;;;;;5.75;3.42;;;;;;;9.45;81.94;97265.09;5116399;28;20039;-62
2021/10/10 05:15:05;;;;;;;6.07;3.30;;;;;;;9.45;82.07;97262.47;5116498;28;20020;-62
2021/10/10 05:17:31;;;;;;;4.80;3.22;;;;;;;9.46;81.83;97258.94;5116354;28;20041;-62
2021/10/10 05:19:56;;;;;;;6.38;3.38;;;;;;;9.51;81.82;97264.09;5116024;28;20012;-62
2021/10/10 05:22:22;;;;;;;5.03;3.75;;;;;;;9.55;81.81;97264.88;5116252;28;20028;-63
2021/10/10 05:24:48;;;;;;;7.07;3.65;;;;;;;9.56;81.85;97262.25;5116304;28;20031;-61
2021/10/10 05:27:14;;;;;;;6.43;4.03;;;;;;;9.61;81.58;97272.59;5116217;28;20019;-61
2021/10/10 05:29:39;;;;;;;4.03;3.50;;;;;;;9.68;81.21;97268.06;5116111;28;20471;-62
2021/10/10 05:32:05;;;;;;;7.30;3.47;;;;;;;9.70;81.23;97271.53;5116103;28;20020;-63
2021/10/10 05:34:32;;;;;;;5.35;4.18;;;;;;;9.72;81.61;97267.09;5116297;28;20385;-62
2021/10/10 05:36:57;;;;;;;6.82;3.63;;;;;;;9.75;81.72;97274.88;5116282;28;20481;-62
2021/10/10 05:39:23;;;;;;;6.18;3.67;;;;;;;9.77;81.61;97273.09;5115989;28;20274;-62
2021/10/10 05:41:49;;;;;;;5.95;3.83;;;;;;;9.83;81.61;97274.69;5115837;28;20016;-62
2021/10/10 05:44:15;;;;;;;6.88;4.03;;;;;;;9.86;81.34;97270.28;5115782;28;20023;-63
2021/10/10 05:46:40;;;;;;;7.20;4.25;;;;;;;9.88;81.75;97279.81;5115926;28;20055;-61
2021/10/10 05:49:06;;;;;;;7.45;3.65;;;;;;;9.92;81.54;97281.47;5116115;28;20414;-62
2021/10/10 05:51:32;;;;;;;9.40;4.07;;;;;;;9.94;81.47;97282.28;5115802;28;20047;-62
2021/10/10 05:53:58;;;;;;;7.15;3.92;;;;;;;9.94;81.59;97277.91;5115532;28;20027;-62
2021/10/10 05:56:24;;;;;;;4.22;3.58;;;;;;;10.03;81.66;97284.69;5115901;28;20055;-61
2021/10/10 05:59:22;;;;;;;3.95;3.60;;;;;;;10.08;81.37;97280.19;5115610;28;20026;-62
2021/10/10 06:01:41;;;;;;;3.85;3.50;;;;;;;10.14;81.49;97281.81;5111419;28;20040;-62
2021/10/10 06:04:07;;;;;;;6.85;3.70;;;;;;;10.17;81.16;97278.28;5115462;28;20047;-62
2021/10/10 06:06:32;;;;;;;7.03;3.97;;;;;;;10.21;80.63;97285.16;5115449;28;20042;-62
2021/10/10 06:08:58;;;;;;;7.85;4.25;;;;;;;10.16;80.42;97282.63;5115383;28;20473;-63
2021/10/10 06:11:24;;;;;;;6.85;3.70;;;;;;;10.12;79.97;97278.38;5115427;28;20088;-61
2021/10/10 06:13:50;;;;;;;10.77;3.83;;;;;;;10.04;80.45;97281.19;5115307;28;20035;-62
2021/10/10 06:16:15;;;;;;;9.40;4.45;;;;;;;10.02;80.84;97282.13;5115201;28;20504;-62
2021/10/10 06:18:41;;;;;;;8.70;4.00;;;;;;;9.99;81.45;97278.66;5115213;28;20141;-61
2021/10/10 06:21:07;;;;;;;10.82;4.18;;;;;;;9.99;81.56;97286.50;5115275;28;20081;-63
2021/10/10 06:23:33;;;;;;;6.20;3.85;;;;;;;9.95;81.61;97282.25;5096965;28;20030;-62
2021/10/10 06:25:59;;;;;;;5.43;3.92;;;;;;;9.97;82.21;97277.84;5115233;28;20020;-62
2021/10/10 06:28:24;;;;;;;7.15;4.03;;;;;;;10.01;81.90;97280.38;5114926;28;20030;-63
2021/10/10 06:30:50;;;;;;;7.95;3.83;;;;;;;9.95;81.23;97273.56;5114892;28;20020;-61
2021/10/10 06:33:16;;;;;;;7.57;4.07;;;;;;;9.82;81.75;97279.06;5113674;28;20035;-62
2021/10/10 06:35:42;;;;;;;8.57;4.25;;;;;;;9.88;82.26;97283.31;5115006;28;20016;-61
2021/10/10 06:38:07;;;;;;;10.77;4.15;;;;;;;9.93;81.58;97283.19;5114852;28;20072;-61
2021/10/10 06:40:33;;;;;;;8.63;4.10;;;;;;;9.92;81.36;97273.63;5114939;28;20027;-62
2021/10/10 06:42:59;;;;;;;8.70;4.35;;;;;;;9.87;82.57;97276.34;5114666;28;20011;-61
2021/10/10 06:45:25;;;;;;;16.40;4.45;;;;;;;9.88;82.49;97277.22;5114717;28;20020;-61
2021/10/10 06:47:50;;;;;;;11.45;4.57;;;;;;;9.90;82.69;97281.50;5114682;28;20027;-61
2021/10/10 06:50:16;;;;;;;9.77;4.55;;;;;;;9.90;82.66;97281.50;5114630;28;20020;-61
2021/10/10 06:52:42;;;;;;;17.40;4.78;;;;;;;9.95;82.74;97286.63;5114594;28;20020;-62
2021/10/10 06:55:08;;;;;;;8.10;4.45;;;;;;;9.98;82.56;97287.41;5114440;28;20019;-62
2021/10/10 06:57:34;;;;;;;14.32;4.82;;;;;;;10.05;82.32;97287.28;5114425;28;20028;-62
2021/10/10 07:00:01;;;;;;;6.93;4.40;;;;;;;10.12;82.10;97283.63;5114511;28;20023;-61
2021/10/10 07:02:30;;;;;;;8.15;5.13;;;;;;;10.16;82.12;97282.63;5114195;28;20405;-63
2021/10/10 07:04:59;;;;;;;7.57;4.43;;;;;;;10.18;81.78;97283.44;5114291;28;20032;-62
2021/10/10 07:07:26;;;;;;;10.55;3.97;;;;;;;10.18;81.12;97288.66;5114292;28;20027;-62
2021/10/10 07:09:51;;;;;;;10.90;3.50;;;;;;;10.21;81.74;97285.97;5114091;28;20016;-62
2021/10/10 07:12:19;;;;;;;7.03;4.00;;;;;;;10.19;81.16;97290.41;5114242;28;20503;-62
2021/10/10 07:14:50;;;;;;;7.57;3.90;;;;;;;10.21;80.16;97285.97;5114226;28;20039;-62
2021/10/10 07:17:16;;;;;;;16.42;6.05;;;;;;;10.16;81.14;97285.25;5113979;28;20088;-62
2021/10/10 07:19:53;;;;;;;9.88;4.25;;;;;;;10.21;81.60;97285.16;5114479;28;20415;-62
2021/10/10 07:22:42;;;;;;;15.55;4.13;;;;;;;10.22;81.61;97287.72;5114218;28;20073;-63
2021/10/10 07:25:10;;;;;;;8.98;4.32;;;;;;;10.29;81.83;97290.19;5114537;28;20024;-63
2021/10/10 07:27:41;;;;;;;14.40;4.10;;;;;;;10.29;81.69;97288.41;5113971;28;20099;-63
2021/10/10 07:30:10;;;;;;;9.07;3.85;;;;;;;10.32;81.09;97296.19;5113862;28;20035;-61
2021/10/10 07:32:37;;;;;;;11.05;4.05;;;;;;;10.41;81.73;97292.47;5113594;28;20015;-62
2021/10/10 07:35:04;;;;;;;8.23;3.47;;;;;;;10.43;80.71;97298.53;5113828;28;20031;-61
2021/10/10 07:37:30;;;;;;;7.10;3.42;;;;;;;10.44;79.78;97299.38;5113771;28;20389;-62
2021/10/10 07:39:56;;;;;;;11.10;3.50;;;;;;;10.42;80.57;97296.81;5113631;28;20034;-63
2021/10/10 07:42:22;;;;;;;7.65;3.15;;;;;;;10.49;80.80;97292.31;5113730;28;20102;-61
2021/10/10 07:44:51;;;;;;;12.18;3.72;;;;;;;10.52;80.50;97294.00;5113339;28;20016;-62
2021/10/10 07:49:50;;;;;;;14.07;3.85;;;;;;;10.53;79.71;97300.97;5113689;28;20028;-60
2021/10/10 07:52:16;;;;;;;10.02;3.80;;;;;;;10.55;80.06;97297.41;5113486;28;20103;-63
2021/10/10 07:54:43;;;;;;;9.02;3.40;;;;;;;10.52;79.47;97302.72;5095249;28;20493;-63
2021/10/10 07:57:09;;;;;;;7.63;4.50;;;;;;;10.52;78.84;97297.47;5093183;28;20036;-63
2021/10/10 07:59:35;;;;;;;12.85;4.70;;;;;;;10.55;79.91;97299.16;5093185;28;20436;-63
2021/10/10 08:02:00;;;;;;;10.70;4.07;;;;;;;10.59;80.29;97298.16;5092905;28;20089;-62
2021/10/10 08:04:28;;;;;;;10.85;4.00;;;;;;;10.57;79.44;97295.59;5093098;28;20048;-63
2021/10/10 08:06:55;;;;;;;10.73;4.10;;;;;;;10.55;79.59;97293.91;5093067;28;20249;-61
2021/10/10 08:09:21;;;;;;;10.75;4.38;;;;;;;10.49;80.26;97289.69;5093135;28;20024;-62
2021/10/10 08:11:47;;;;;;;13.20;4.93;;;;;;;10.52;80.39;97288.75;5093100;28;20363;-62
2021/10/10 08:14:14;;;;;;;11.35;4.65;;;;;;;10.54;80.67;97294.81;5092879;28;20090;-62
2021/10/10 08:16:40;;;;;;;7.95;4.57;;;;;;;10.52;80.49;97296.59;5092973;28;20099;-63
2021/10/10 08:19:07;;;;;;;11.23;4.40;;;;;;;10.52;80.23;97287.00;5093035;28;20027;-62
2021/10/10 08:21:34;;;;;;;8.18;4.38;;;;;;;10.48;79.38;97293.22;5092906;28;20032;-63
2021/10/10 08:24:02;;;;;;;9.55;4.30;;;;;;;10.46;79.65;97293.25;5092837;28;20385;-61
2021/10/10 08:26:28;;;;;;;14.60;3.88;;;;;;;10.41;78.78;97297.72;5092888;28;20039;-62
2021/10/10 08:28:55;;;;;;;14.45;4.18;;;;;;;10.43;79.12;97298.53;5093047;28;20069;-62
2021/10/10 08:31:24;;;;;;;11.38;4.88;;;;;;;10.40;80.20;97292.50;5093196;28;20016;-62
2021/10/10 08:33:49;;;;;;;8.90;3.78;;;;;;;10.35;80.03;97293.50;5092806;28;20103;-63
2021/10/10 08:36:15;;;;;;;16.52;4.43;;;;;;;10.28;79.91;97293.69;5092702;28;20103;-63
2021/10/10 08:38:41;;;;;;;13.02;4.90;;;;;;;10.28;78.73;97297.16;5092856;28;20128;-61
2021/10/10 08:41:07;;;;;;;13.23;4.68;;;;;;;10.28;80.38;97286.72;5092679;28;20377;-61
2021/10/10 08:43:35;;;;;;;13.23;4.95;;;;;;;10.22;80.51;97287.72;5092842;28;20111;-61
2021/10/10 08:46:04;;;;;;;16.77;5.03;;;;;;;10.24;80.39;97285.91;5092686;28;20013;-61
2021/10/10 08:48:30;;;;;;;12.82;5.32;;;;;;;10.34;81.28;97291.78;5092592;28;20024;-62
2021/10/10 08:50:57;;;;;;;14.55;5.10;;;;;;;10.34;81.04;97286.56;5092756;28;20099;-63
2021/10/10 08:53:24;;;;;;;10.38;4.82;;;;;;;10.41;80.53;97292.47;5092704;28;20055;-63
2021/10/10 08:55:51;;;;;;;13.25;5.38;;;;;;;10.48;79.87;97290.63;5093881;28;20024;-62
2021/10/10 08:58:20;;;;;;;13.52;4.88;;;;;;;10.46;80.38;97288.03;5096448;28;20020;-61
2021/10/10 09:01:01;;;;;;;16.08;4.80;;;;;;;10.54;80.15;97282.56;5096303;28;20028;-62
2021/10/10 09:03:26;;;;;;;;;;;;;;;10.41;79.76;97289.03;5096517;28;20126;-61
2021/10/10 09:05:52;;;;;;;8.30;5.03;;;;;;;10.34;80.18;97291.78;5096491;28;19958;-63
2021/10/10 09:08:22;;;;;;;21.33;5.07;;;;;;;10.40;80.90;97293.38;5096155;28;20024;-61
2021/10/10 09:10:59;;;;;;;16.17;6.22;;;;;;;10.48;81.39;97285.38;5078059;28;20031;-62
2021/10/10 09:13:35;;;;;;;21.77;5.72;;;;;;;10.46;80.24;97277.56;5096186;28;20074;-63
2021/10/10 09:16:02;;;;;;;20.55;5.28;;;;;;;10.43;80.36;97272.38;5096103;28;20035;-61
2021/10/10 09:18:39;;;;;;;20.88;5.50;;;;;;;10.42;81.26;97275.03;5095942;28;20032;-61
2021/10/10 09:21:19;;;;;;;19.70;5.38;;;;;;;10.43;80.18;97269.75;5096044;28;20024;-63
2021/10/10 09:23:49;;;;;;;13.45;5.25;;;;;;;10.42;79.91;97281.09;5095941;28;20032;-62
2021/10/10 09:26:17;;;;;;;16.70;6.07;;;;;;;10.48;80.89;97283.59;5096031;28;20431;-62
2021/10/10 09:28:43;;;;;;;9.73;5.47;;;;;;;10.54;81.89;97282.56;5095890;28;20028;-62
2021/10/10 09:31:10;;;;;;;12.63;5.53;;;;;;;10.63;80.28;97286.75;5095693;28;20031;-62
2021/10/10 09:33:37;;;;;;;20.38;5.25;;;;;;;10.58;80.38;97286.84;5095626;28;20390;-62
2021/10/10 09:36:05;;;;;;;18.48;5.53;;;;;;;10.59;80.10;97285.06;5095728;28;20060;-62
2021/10/10 09:38:42;;;;;;;17.10;6.35;;;;;;;10.62;81.03;97295.47;5077535;28;20381;-63
2021/10/10 09:41:16;;;;;;;11.80;6.22;;;;;;;10.70;80.28;97288.28;5077614;28;20047;-61
2021/10/10 09:44:01;;;;;;;18.42;5.95;;;;;;;10.78;80.37;97300.31;5095656;28;20035;-62
2021/10/10 09:46:28;;;;;;;25.38;5.90;;;;;;;10.91;80.96;97296.47;5095738;28;20490;-63
2021/10/10 09:48:54;;;;;;;28.75;5.47;;;;;;;10.93;78.76;97286.78;5095388;28;20025;-62
2021/10/10 09:51:31;;;;;;;18.52;5.75;;;;;;;11.00;79.81;97292.72;5095376;28;20021;-61
2021/10/10 09:54:05;;;;;;;17.50;6.35;;;;;;;11.08;79.67;97293.34;5095431;28;20028;-63
2021/10/10 09:56:34;;;;;;;17.60;6.47;;;;;;;11.16;81.03;97284.44;5095383;28;20028;-63
2021/10/10 09:59:00;;;;;;;14.60;5.63;;;;;;;11.20;79.17;97286.91;5095269;28;20017;-63
2021/10/10 10:01:29;;;;;;;21.65;5.43;;;;;;;11.19;78.45;97287.81;5095286;28;20047;-62
2021/10/10 10:04:04;;;;;;;18.02;6.07;;;;;;;11.15;76.99;97283.59;5095118;28;20097;-61
2021/10/10 10:06:35;;;;;;;22.05;5.43;;;;;;;11.18;78.52;97280.88;5095165;28;20095;-61
2021/10/10 10:09:03;;;;;;;;;;;;;;;11.16;77.53;97271.34;5095664;28;20036;-62
2021/10/10 10:11:34;;;;;;;16.30;5.15;;;;;;;11.04;76.37;97275.16;5094960;28;19919;-63
2021/10/10 10:14:01;;;;;;;;;;;;;;;11.10;78.63;97281.09;5095401;28;20027;-61
2021/10/10 10:16:29;;;;;;;19.63;5.95;;;;;;;11.01;79.21;97281.34;5095179;28;19916;-62
2021/10/10 10:18:57;;;;;;;19.83;6.72;;;;;;;11.11;79.21;97279.34;5094214;28;20084;-61
2021/10/10 10:21:23;;;;;;;14.77;6.00;;;;;;;11.11;78.62;97289.81;5094994;28;20024;-62
2021/10/10 10:23:50;;;;;;;22.17;6.32;;;;;;;11.17;79.02;97286.16;5094735;28;20024;-62
2021/10/10 10:26:17;;;;;;;24.60;6.38;;;;;;;11.15;77.86;97287.97;5094742;28;20487;-62
2021/10/10 10:28:43;;;;;;;22.63;6.93;;;;;;;11.20;79.16;97284.28;5094793;28;20028;-63
2021/10/10 10:31:13;;;;;;;16.23;6.10;;;;;;;11.25;78.39;97284.16;5094674;28;20469;-61
2021/10/10 10:33:39;;;;;;;21.02;5.65;;;;;;;11.31;78.07;97280.50;5094679;28;20028;-63
2021/10/10 10:36:04;;;;;;;18.48;5.78;;;;;;;11.29;77.92;97277.94;5094523;28;20020;-62
2021/10/10 10:38:43;;;;;;;16.02;5.90;;;;;;;11.29;78.11;97267.47;5094476;28;20032;-61
2021/10/10 10:41:48;;;;;;;18.60;6.57;;;;;;;11.29;78.27;97271.84;5094368;28;20024;-61
2021/10/10 10:44:37;;;;;;;21.30;6.13;;;;;;;11.36;78.47;97271.63;5090275;28;20043;-62
2021/10/10 10:47:17;;;;;;;27.05;6.47;;;;;;;11.31;78.24;97272.66;5094477;28;20497;-63
2021/10/10 10:49:55;;;;;;;28.08;6.43;;;;;;;11.38;78.82;97271.59;5094449;28;20377;-61
2021/10/10 10:52:24;;;;;;;19.70;6.10;;;;;;;11.42;76.84;97267.97;5094098;28;20107;-61
2021/10/10 10:55:16;;;;;;;16.70;6.13;;;;;;;11.38;77.68;97259.34;5094150;28;20032;-63
2021/10/10 10:57:51;;;;;;;23.67;7.72;;;;;;;11.36;77.19;97262.91;5083242;28;20040;-62
2021/10/10 11:00:44;;;;;;;18.70;6.20;;;;;;;11.35;77.74;97259.41;5094001;28;20031;-62
2021/10/10 11:03:20;;;;;;;27.15;6.50;;;;;;;11.34;77.51;97269.94;5089792;28;20044;-62
2021/10/10 11:05:49;;;;;;;16.08;5.70;;;;;;;11.24;76.66;97258.91;5094059;28;20117;-62
2021/10/10 11:08:30;;;;;;;11.55;6.13;;;;;;;11.33;77.37;97260.38;5094123;28;20024;-62
2021/10/10 11:11:08;;;;;;;18.15;6.00;;;;;;;11.34;76.96;97257.72;5093887;28;20079;-61
2021/10/10 11:13:34;;;;;;;22.23;5.53;;;;;;;11.32;77.40;97261.28;5093779;28;20047;-61
2021/10/10 11:16:21;;;;;;;13.02;4.85;;;;;;;11.38;78.18;97255.88;5093828;28;20021;-63
2021/10/10 11:18:50;;;;;;;21.00;7.20;;;;;;;11.49;78.96;97247.66;5093277;28;20531;-61
2021/10/10 11:21:25;;;;;;;20.63;5.13;;;;;;;11.60;78.95;97250.84;5093875;28;20078;-62
2021/10/10 11:23:55;;;;;;;14.95;5.53;;;;;;;11.63;77.69;97244.63;5093770;28;20257;-63
2021/10/10 11:26:23;;;;;;;10.02;5.07;;;;;;;11.68;77.37;97242.72;5093706;28;20108;-63
2021/10/10 11:28:50;;;;;;;19.42;5.53;;;;;;;11.76;78.24;97250.34;5093738;28;20032;-62
2021/10/10 11:31:31;;;;;;;22.27;5.35;;;;;;;11.86;77.68;97248.31;5093617;28;20385;-61
2021/10/10 11:33:58;;;;;;;18.02;6.93;;;;;;;11.86;77.58;97245.69;5093546;28;20028;-61
2021/10/10 11:36:52;;;;;;;15.10;5.43;;;;;;;11.88;76.17;97243.84;5093482;28;20032;-62
2021/10/10 11:39:22;;;;;;;15.68;6.32;;;;;;;11.97;76.93;97230.47;5092997;28;20064;-62
2021/10/10 11:41:49;;;;;;;10.80;6.00;;;;;;;12.07;76.57;97230.19;5093479;28;20024;-62
2021/10/10 11:44:23;;;;;;;22.00;6.22;;;;;;;11.98;76.34;97226.91;5093315;28;20024;-62